Time,TemperatureF,DewpointF,PressureIn,WindDirection,WindDirectionDegrees,WindSpeedMPH,WindSpeedGustMPH,Humidity,HourlyPrecipIn,Conditions,Clouds,dailyrainin,SoftwareType,DateUTC
2013-03-15 00:00:00,33.2,26.1,30.24,West,260,0.0,1.0,75,0.00,BKN,,0.00,WeatherDisplay:10.37,2013-03-15 04:00:00,
2013-03-15 01:00:00,33.2,26.1,30.24,West,260,0.0,1.0,75,0.00,OVC,,0.00,WeatherDisplay:10.37,2013-03-15 05:00:00,
2013-03-15 02:00:00,33.3,25.9,30.22,SSW,194,0.0,3.0,74,0.00,BKN,,0.00,WeatherDisplay:10.37,2013-03-15 06:00:00,
2013-03-15 03:00:00,32.0,26.2,30.23,SSW,194,0.0,2.0,79,0.00,CLR,,0.00,WeatherDisplay:10.37,2013-03-15 07:00:00,
2013-03-15 04:00:00,32.4,26.0,30.21,SSW,194,0.0,1.0,77,0.00,OVC,,0.00,WeatherDisplay:10.37,2013-03-15 08:00:00,
2013-03-15 05:00:00,30.7,25.8,30.19,SSW,194,0.0,1.0,82,0.00,SCT,,0.00,WeatherDisplay:10.37,2013-03-15 09:00:00,
2013-03-15 06:00:00,28.8,24.6,30.19,SSW,194,0.0,0.0,84,0.00,CLR,,0.00,WeatherDisplay:10.37,2013-03-15 10:00:00,
2013-03-15 07:00:00,27.9,24.3,30.19,SSW,194,0.0,0.0,86,0.00,CLR,,0.00,WeatherDisplay:10.37,2013-03-15 11:00:00,
2013-03-15 08:00:00,27.7,24.1,30.19,North,2,0.0,0.0,86,0.00,CLR,,0.00,WeatherDisplay:10.37,2013-03-15 12:00:00,
2013-03-15 09:00:00,27.6,23.9,30.19,North,3,0.0,0.0,86,0.00,CLR,,0.00,WeatherDisplay:10.37,2013-03-15 13:00:00,
2013-03-15 10:00:00,38.3,31.4,30.18,SSW,194,0.0,1.0,76,0.00,CLR,,0.00,WeatherDisplay:10.37,2013-03-15 14:00:00,
2013-03-15 11:00:00,46.7,34.0,30.16,NNE,29,1.0,4.0,61,0.00,CLR,,0.00,WeatherDisplay:10.37,2013-03-15 15:00:00,
2013-03-15 12:00:00,52.9,35.2,30.13,NE,42,0.0,6.0,51,0.00,CLR,,0.00,WeatherDisplay:10.37,2013-03-15 16:00:00,
2013-03-15 13:00:00,58.7,37.4,30.10,South,174,8.0,18.0,45,0.00,CLR,,0.00,WeatherDisplay:10.37,2013-03-15 17:00:00,
2013-03-15 14:00:00,61.8,39.1,30.06,SSE,163,6.0,14.0,43,0.00,CLR,,0.00,WeatherDisplay:10.37,2013-03-15 18:00:00,
2013-03-15 15:00:00,65.1,39.5,30.01,SSE,159,5.0,15.0,39,0.00,CLR,,0.00,WeatherDisplay:10.37,2013-03-15 19:00:00,
2013-03-15 16:00:00,67.8,39.1,29.97,SE,143,9.0,20.0,35,0.00,CLR,,0.00,WeatherDisplay:10.37,2013-03-15 20:00:00,
2013-03-15 17:00:00,67.3,40.8,29.95,SE,143,8.0,26.0,38,0.00,CLR,,0.00,WeatherDisplay:10.37,2013-03-15 21:00:00,
2013-03-15 18:00:00,65.6,41.9,29.96,SSE,151,7.0,28.0,42,0.00,BKN,,0.00,WeatherDisplay:10.37,2013-03-15 22:00:00,
2013-03-15 19:00:00,62.5,44.1,29.95,South,185,0.0,14.0,51,0.00,SCT,,0.00,WeatherDisplay:10.37,2013-03-15 23:00:00,
2013-03-15 20:00:00,62.2,43.8,29.94,SSE,160,2.0,8.0,51,0.00,OVC,,0.00,WeatherDisplay:10.37,2013-03-16 00:00:00,
2013-03-15 21:00:00,52.6,44.5,29.94,South,178,0.0,5.0,74,0.00,OVC,,0.00,WeatherDisplay:10.37,2013-03-16 01:00:00,
2013-03-15 22:00:00,49.1,44.1,29.94,South,178,0.0,2.0,83,0.00,SCT,,0.00,WeatherDisplay:10.37,2013-03-16 02:00:00,
2013-03-15 23:00:00,49.2,43.6,29.94,South,178,0.0,2.0,81,0.00,CLR,,0.00,WeatherDisplay:10.37,2013-03-16 03:00:00,